Time;durP1;ratioP1;P1;durP2;ratioP2;P2;SDS_P1;SDS_P2;PMS_P1;PMS_P2;Temp;Humidity;BMP_temperature;BMP_pressure;BME280_temperature;BME280_humidity;BME280_pressure;Samples;Min_cycle;Max_cycle;Signal;HPM_P1;HPM_P2
2021/12/03 00:00:57;;;;;;;58.00;20.88;;;0.10;99.90;;;;;;4962674;28;20054;-72
2021/12/03 00:03:25;;;;;;;54.30;20.70;;;0.10;99.90;;;;;;4948685;28;20043;-69
2021/12/03 00:05:55;;;;;;;55.20;20.50;;;0.10;99.90;;;;;;4962289;28;20052;-71
2021/12/03 00:08:24;;;;;;;55.30;22.80;;;0.10;99.90;;;;;;4962189;28;20203;-69
2021/12/03 00:10:58;;;;;;;44.42;20.40;;;0.10;99.90;;;;;;4962970;28;20447;-71
2021/12/03 00:13:26;;;;;;;44.97;20.42;;;0.00;99.90;;;;;;4965631;28;20061;-69
2021/12/03 00:15:55;;;;;;;53.63;21.00;;;0.00;99.90;;;;;;4963192;28;20042;-70
2021/12/03 00:18:22;;;;;;;49.58;19.75;;;-0.10;99.90;;;;;;4964394;28;20070;-70
2021/12/03 00:20:50;;;;;;;56.00;21.45;;;-0.10;99.90;;;;;;4962847;28;20055;-71
2021/12/03 00:23:19;;;;;;;54.95;22.90;;;-0.20;99.90;;;;;;4965025;28;20047;-71
2021/12/03 00:25:46;;;;;;;50.50;21.20;;;-0.30;99.90;;;;;;4960575;28;20047;-70
2021/12/03 00:28:13;;;;;;;59.53;22.52;;;-0.30;99.90;;;;;;4963985;28;20050;-69
2021/12/03 00:30:40;;;;;;;53.65;21.75;;;-0.30;99.90;;;;;;4944301;28;20053;-71
2021/12/03 00:33:08;;;;;;;55.28;21.08;;;-0.30;99.90;;;;;;4947428;28;20046;-71
2021/12/03 00:35:35;;;;;;;55.53;23.33;;;-0.40;99.90;;;;;;4961997;28;20039;-69
2021/12/03 00:38:03;;;;;;;55.15;22.02;;;-0.40;99.90;;;;;;4958500;28;20134;-71
2021/12/03 00:40:35;;;;;;;56.20;23.02;;;-0.40;99.90;;;;;;4961726;28;20047;-71
2021/12/03 00:43:03;;;;;;;54.65;23.52;;;-0.40;99.90;;;;;;4962030;28;20088;-69
2021/12/03 00:45:31;;;;;;;60.20;22.08;;;-0.40;99.90;;;;;;4961660;28;20053;-71
2021/12/03 00:47:59;;;;;;;58.08;23.15;;;-0.50;99.90;;;;;;4946579;28;20113;-69
2021/12/03 00:50:27;;;;;;;55.80;23.55;;;-0.50;99.90;;;;;;4962024;28;20043;-69
2021/12/03 00:52:55;;;;;;;63.20;23.08;;;-0.50;99.90;;;;;;4964017;28;20412;-69
2021/12/03 00:55:25;;;;;;;60.92;23.00;;;-0.50;99.90;;;;;;4963889;28;20046;-69
2021/12/03 00:57:51;;;;;;;54.88;22.25;;;-0.60;99.90;;;;;;4944576;28;20058;-67
2021/12/03 01:00:24;;;;;;;64.18;23.00;;;-0.60;99.90;;;;;;4962857;28;20063;-69
2021/12/03 01:02:53;;;;;;;65.10;23.42;;;-0.50;99.90;;;;;;4979752;28;20141;-69
2021/12/03 01:05:21;;;;;;;52.97;20.58;;;-0.50;99.90;;;;;;4964303;28;20046;-71
2021/12/03 01:07:48;;;;;;;60.85;23.17;;;-0.60;99.90;;;;;;4960228;28;20066;-67
2021/12/03 01:10:16;;;;;;;57.65;21.85;;;-0.60;99.90;;;;;;4962503;28;20047;-68
2021/12/03 01:12:43;;;;;;;57.00;21.60;;;-0.60;99.90;;;;;;4963107;28;20499;-68
2021/12/03 01:15:13;;;;;;;55.92;21.85;;;-0.70;99.90;;;;;;4961661;28;20154;-67
2021/12/03 01:17:40;;;;;;;62.83;22.85;;;-0.70;99.90;;;;;;4929846;28;20154;-68
2021/12/03 01:20:09;;;;;;;62.20;20.73;;;-0.70;99.90;;;;;;4961876;28;20063;-67
2021/12/03 01:22:37;;;;;;;63.45;22.63;;;-0.70;99.90;;;;;;4960337;28;20173;-68
2021/12/03 01:25:07;;;;;;;54.97;19.88;;;-0.70;99.90;;;;;;4964170;28;20055;-68
2021/12/03 01:27:34;;;;;;;55.60;20.77;;;-0.70;99.90;;;;;;4945442;28;20411;-67
2021/12/03 01:30:01;;;;;;;56.53;20.55;;;-0.70;99.90;;;;;;4959951;28;20042;-69
2021/12/03 01:32:28;;;;;;;48.85;20.70;;;-0.80;99.90;;;;;;4960360;28;20058;-68
2021/12/03 01:34:55;;;;;;;55.33;19.40;;;-0.80;99.90;;;;;;4963550;28;20063;-69
2021/12/03 01:37:22;;;;;;;51.60;18.95;;;-0.90;99.90;;;;;;4961352;28;20055;-68
2021/12/03 01:39:49;;;;;;;49.30;18.33;;;-0.90;99.90;;;;;;4961736;28;20047;-68
2021/12/03 01:42:16;;;;;;;53.83;20.67;;;-0.90;99.90;;;;;;4976263;28;20054;-67
2021/12/03 01:44:43;;;;;;;51.05;19.20;;;-0.90;99.90;;;;;;4962860;28;20043;-68
2021/12/03 01:47:10;;;;;;;52.35;18.75;;;-1.00;99.90;;;;;;4945083;28;20069;-67
2021/12/03 01:49:37;;;;;;;56.25;18.73;;;-1.00;99.90;;;;;;4961299;28;20122;-67
2021/12/03 01:52:04;;;;;;;49.28;17.67;;;-0.90;99.90;;;;;;4963101;28;20051;-68
2021/12/03 01:54:31;;;;;;;37.17;15.25;;;-0.80;99.90;;;;;;4963719;28;20051;-68
2021/12/03 01:56:58;;;;;;;40.38;14.82;;;-0.80;99.90;;;;;;4961188;28;20091;-67
2021/12/03 01:59:25;;;;;;;36.20;13.98;;;-0.70;99.90;;;;;;4943450;28;20046;-69
2021/12/03 02:01:52;;;;;;;40.03;14.18;;;-0.70;99.90;;;;;;4961442;28;20062;-67
2021/12/03 02:04:19;;;;;;;35.13;15.18;;;-0.70;99.90;;;;;;4961421;28;20813;-69
2021/12/03 02:06:46;;;;;;;38.95;13.80;;;-0.60;99.90;;;;;;4960833;28;20272;-67
2021/12/03 02:09:13;;;;;;;31.63;14.48;;;-0.60;99.90;;;;;;4977381;28;20066;-68
2021/12/03 02:11:39;;;;;;;34.53;13.90;;;-0.50;99.90;;;;;;4962135;28;20149;-68
2021/12/03 02:14:06;;;;;;;29.27;12.25;;;-0.40;99.90;;;;;;4944771;28;20055;-69
2021/12/03 02:16:33;;;;;;;30.02;12.55;;;-0.40;99.90;;;;;;4961204;28;20054;-69
2021/12/03 02:19:00;;;;;;;29.98;12.70;;;-0.40;99.90;;;;;;4961217;28;20149;-68
2021/12/03 02:21:27;;;;;;;33.30;11.45;;;-0.40;99.90;;;;;;4941557;28;20066;-67
2021/12/03 02:23:55;;;;;;;26.90;10.82;;;-0.40;99.90;;;;;;4961685;28;20062;-67
2021/12/03 02:26:23;;;;;;;25.80;11.05;;;-0.40;99.90;;;;;;4960527;28;20079;-66
2021/12/03 02:28:52;;;;;;;29.55;11.85;;;-0.50;99.90;;;;;;4958620;28;20065;-68
2021/12/03 02:31:22;;;;;;;26.60;11.35;;;-0.50;99.90;;;;;;4959937;28;20051;-69
2021/12/03 02:33:50;;;;;;;24.77;10.98;;;-0.60;99.90;;;;;;4962785;28;20051;-66
2021/12/03 02:36:18;;;;;;;28.77;11.10;;;-0.60;99.90;;;;;;4958346;28;20619;-67
2021/12/03 02:38:46;;;;;;;28.52;12.18;;;-0.60;99.90;;;;;;4961622;28;20126;-67
2021/12/03 02:41:13;;;;;;;28.13;12.35;;;-0.60;99.90;;;;;;4960548;28;20061;-66
2021/12/03 02:43:40;;;;;;;29.73;11.65;;;-0.60;99.90;;;;;;4960470;28;20054;-66
2021/12/03 02:46:07;;;;;;;23.90;12.07;;;-0.60;99.90;;;;;;4962152;28;20046;-66
2021/12/03 02:48:36;;;;;;;26.10;11.45;;;-0.60;99.90;;;;;;4976115;28;20077;-68
2021/12/03 02:51:06;;;;;;;29.02;13.00;;;-0.60;99.90;;;;;;4961457;28;20060;-68
2021/12/03 02:53:33;;;;;;;25.73;11.23;;;-0.60;99.90;;;;;;4960425;28;20065;-67
2021/12/03 02:56:00;;;;;;;23.25;10.90;;;-0.60;99.90;;;;;;4960720;28;20090;-67
2021/12/03 02:58:28;;;;;;;25.52;12.13;;;-0.60;99.90;;;;;;4958789;28;20043;-67
2021/12/03 03:00:56;;;;;;;27.15;11.38;;;-0.50;99.90;;;;;;4976197;28;20046;-66
2021/12/03 03:03:24;;;;;;;25.73;10.32;;;-0.50;99.90;;;;;;4961113;28;20055;-67
2021/12/03 03:05:59;;;;;;;20.45;10.00;;;-0.40;99.90;;;;;;4959159;28;20054;-68
2021/12/03 03:08:27;;;;;;;18.48;9.10;;;-0.30;99.90;;;;;;4956318;28;20066;-68
2021/12/03 03:10:55;;;;;;;23.48;9.88;;;-0.30;99.90;;;;;;4956239;28;20043;-66
2021/12/03 03:13:22;;;;;;;20.70;10.80;;;-0.30;99.90;;;;;;4961049;28;20059;-67
2021/12/03 03:15:49;;;;;;;23.23;10.18;;;-0.20;99.90;;;;;;4964709;28;20039;-68
2021/12/03 03:18:23;;;;;;;25.70;10.27;;;-0.20;99.90;;;;;;4961930;28;20134;-65
2021/12/03 03:20:53;;;;;;;25.27;10.43;;;-0.20;99.90;;;;;;4957904;28;20058;-67
2021/12/03 03:23:21;;;;;;;23.42;10.68;;;-0.20;99.90;;;;;;4961468;28;20055;-68
2021/12/03 03:25:49;;;;;;;28.77;11.15;;;-0.20;99.90;;;;;;4947750;28;20195;-67
2021/12/03 03:28:17;;;;;;;26.25;11.35;;;-0.20;99.90;;;;;;4963012;28;20189;-67
2021/12/03 03:30:47;;;;;;;21.80;11.52;;;-0.20;99.90;;;;;;4963031;28;20091;-66
2021/12/03 03:33:15;;;;;;;25.55;11.20;;;-0.20;99.90;;;;;;4963916;28;20056;-68
2021/12/03 03:35:44;;;;;;;26.80;13.40;;;-0.20;99.90;;;;;;4945592;28;20054;-68
2021/12/03 03:38:11;;;;;;;31.48;14.68;;;-0.20;99.90;;;;;;4961101;28;20070;-68
2021/12/03 03:40:40;;;;;;;36.72;15.18;;;-0.20;99.90;;;;;;4962885;28;20047;-67
2021/12/03 03:43:07;;;;;;;30.55;15.80;;;-0.30;99.90;;;;;;4946528;28;20089;-67
2021/12/03 03:45:35;;;;;;;31.33;14.95;;;-0.20;99.90;;;;;;4946868;28;20067;-67
2021/12/03 03:48:03;;;;;;;33.70;15.27;;;-0.30;99.90;;;;;;4947195;28;20752;-67
2021/12/03 03:50:31;;;;;;;43.47;19.42;;;-0.30;99.90;;;;;;4963402;28;20047;-68
2021/12/03 03:52:58;;;;;;;39.90;19.48;;;-0.40;99.90;;;;;;4947466;28;20146;-68
2021/12/03 03:55:27;;;;;;;47.20;20.83;;;-0.40;99.90;;;;;;4962365;28;20113;-66
2021/12/03 03:57:57;;;;;;;45.42;21.80;;;-0.40;99.90;;;;;;4959638;28;20046;-68
2021/12/03 04:00:34;;;;;;;49.20;21.35;;;-0.40;99.90;;;;;;4976836;28;20058;-68
2021/12/03 04:03:01;;;;;;;53.85;24.88;;;-0.40;99.90;;;;;;4964156;28;20050;-65
2021/12/03 04:05:29;;;;;;;64.68;26.70;;;-0.40;99.90;;;;;;4946741;28;20061;-68
2021/12/03 04:07:56;;;;;;;62.25;27.60;;;-0.40;99.90;;;;;;4956270;28;20129;-68
2021/12/03 04:10:23;;;;;;;59.65;27.23;;;-0.40;99.90;;;;;;4956581;28;20109;-66
2021/12/03 04:12:50;;;;;;;66.90;27.75;;;-0.40;99.90;;;;;;4961598;28;20499;-68
2021/12/03 04:15:17;;;;;;;67.18;29.25;;;-0.40;99.90;;;;;;4960766;28;20573;-68
2021/12/03 04:17:44;;;;;;;63.50;25.85;;;-0.50;99.90;;;;;;4960939;28;20046;-68
2021/12/03 04:20:13;;;;;;;63.38;27.65;;;-0.40;99.90;;;;;;4959167;28;20062;-67
2021/12/03 04:22:42;;;;;;;60.22;28.05;;;-0.40;99.90;;;;;;4962742;28;20058;-68
2021/12/03 04:25:13;;;;;;;62.00;27.42;;;-0.50;99.90;;;;;;4962697;28;20137;-68
2021/12/03 04:27:40;;;;;;;61.75;27.25;;;-0.40;99.90;;;;;;4961041;28;20047;-66
2021/12/03 04:30:10;;;;;;;68.65;27.08;;;-0.40;99.90;;;;;;4960541;28;20117;-68
2021/12/03 04:32:38;;;;;;;57.42;25.27;;;-0.50;99.90;;;;;;4944625;28;20169;-67
2021/12/03 04:35:05;;;;;;;60.13;26.15;;;-0.50;99.90;;;;;;4961936;28;20423;-66
2021/12/03 04:37:33;;;;;;;56.88;24.67;;;-0.40;99.90;;;;;;4960178;28;20062;-67
2021/12/03 04:40:00;;;;;;;53.75;22.33;;;-0.40;99.90;;;;;;4960889;28;20055;-68
2021/12/03 04:42:26;;;;;;;51.92;22.38;;;-0.40;99.90;;;;;;4973825;28;20496;-67
2021/12/03 04:44:53;;;;;;;44.92;20.65;;;-0.40;99.90;;;;;;4962956;28;20098;-66
2021/12/03 04:47:20;;;;;;;38.97;17.77;;;-0.40;99.90;;;;;;4958293;28;20741;-67
2021/12/03 04:49:47;;;;;;;38.08;17.38;;;-0.40;99.90;;;;;;4945435;28;20676;-67
2021/12/03 04:52:14;;;;;;;32.33;15.95;;;-0.40;99.90;;;;;;4961426;28;20057;-68
2021/12/03 04:54:42;;;;;;;36.33;15.50;;;-0.40;99.90;;;;;;4962972;28;20073;-68
2021/12/03 04:57:09;;;;;;;37.80;15.73;;;-0.50;99.90;;;;;;4959620;28;20051;-67
2021/12/03 04:59:37;;;;;;;29.05;13.85;;;-0.50;99.90;;;;;;4960542;28;20058;-67
2021/12/03 05:02:04;;;;;;;36.05;17.83;;;-0.40;99.90;;;;;;4955312;28;20054;-67
2021/12/03 05:04:36;;;;;;;39.00;17.33;;;-0.40;99.90;;;;;;4959601;28;20607;-66
2021/12/03 05:07:27;;;;;;;36.47;15.55;;;-0.40;99.90;;;;;;4943655;28;20065;-70
2021/12/03 05:09:53;;;;;;;41.30;16.77;;;-0.40;99.90;;;;;;4986271;28;20061;-69
2021/12/03 05:12:20;;;;;;;32.17;14.05;;;-0.30;99.90;;;;;;4955693;28;20043;-69
2021/12/03 05:14:46;;;;;;;38.78;17.23;;;-0.30;99.90;;;;;;4961200;28;20100;-64
2021/12/03 05:17:13;;;;;;;47.25;17.67;;;-0.30;99.90;;;;;;4959945;28;20101;-66
2021/12/03 05:19:40;;;;;;;40.95;18.45;;;-0.30;99.90;;;;;;4961096;28;20070;-67
2021/12/03 05:22:07;;;;;;;44.72;17.95;;;-0.20;99.90;;;;;;4928915;28;20071;-67
2021/12/03 05:24:35;;;;;;;38.97;16.92;;;-0.20;99.90;;;;;;4960742;28;20427;-65
2021/12/03 05:27:02;;;;;;;41.58;17.35;;;-0.20;99.90;;;;;;4962035;28;20134;-65
2021/12/03 05:29:28;;;;;;;33.70;16.90;;;-0.20;99.90;;;;;;4960585;28;20097;-65
2021/12/03 05:31:55;;;;;;;35.70;18.17;;;-0.10;99.90;;;;;;4959809;28;20050;-66
2021/12/03 05:34:28;;;;;;;33.75;14.88;;;-0.10;99.90;;;;;;4962044;28;20050;-66
2021/12/03 05:36:55;;;;;;;34.53;16.27;;;0.00;99.90;;;;;;4959387;28;20098;-68
2021/12/03 05:39:22;;;;;;;39.28;16.17;;;0.00;99.90;;;;;;4960546;28;20065;-66
2021/12/03 05:41:49;;;;;;;35.30;17.98;;;0.10;99.90;;;;;;4959877;28;20078;-65
2021/12/03 05:44:16;;;;;;;42.05;18.45;;;0.10;99.90;;;;;;4945852;28;20070;-67
2021/12/03 05:46:43;;;;;;;36.30;17.05;;;0.10;99.90;;;;;;4959768;28;20748;-66
2021/12/03 05:49:11;;;;;;;37.42;17.08;;;0.10;99.90;;;;;;4941897;28;20054;-67
2021/12/03 05:51:38;;;;;;;39.95;18.00;;;0.10;99.90;;;;;;4961561;28;20054;-66
2021/12/03 05:54:05;;;;;;;38.88;15.18;;;0.10;99.90;;;;;;4957958;28;20054;-66
2021/12/03 05:56:32;;;;;;;38.05;17.90;;;0.00;99.90;;;;;;4957834;28;20357;-67
2021/12/03 05:58:59;;;;;;;34.00;15.77;;;0.00;99.90;;;;;;4960948;28;20142;-66
2021/12/03 06:01:26;;;;;;;36.35;15.98;;;0.00;99.90;;;;;;4959297;28;20042;-67
2021/12/03 06:03:54;;;;;;;36.40;15.05;;;0.00;99.90;;;;;;4943994;28;20145;-68
2021/12/03 06:06:22;;;;;;;33.40;16.52;;;0.00;99.90;;;;;;4941158;28;20146;-67
2021/12/03 06:08:49;;;;;;;35.42;15.52;;;0.00;99.90;;;;;;4958186;28;20059;-65
2021/12/03 06:11:16;;;;;;;37.35;15.93;;;0.10;99.90;;;;;;4960843;28;20149;-67
2021/12/03 06:13:43;;;;;;;38.75;16.17;;;0.10;99.90;;;;;;4958909;28;20047;-68
2021/12/03 06:16:12;;;;;;;42.78;17.52;;;0.20;99.90;;;;;;4974128;28;20086;-66
2021/12/03 06:18:39;;;;;;;37.35;14.63;;;0.30;99.90;;;;;;4957960;28;20050;-66
2021/12/03 06:21:09;;;;;;;36.38;15.60;;;0.30;99.90;;;;;;4960271;28;20397;-66
2021/12/03 06:23:36;;;;;;;43.42;15.45;;;0.40;99.90;;;;;;4960324;28;20046;-65
2021/12/03 06:26:06;;;;;;;37.05;16.25;;;0.40;99.90;;;;;;4959869;28;20065;-67
2021/12/03 06:28:39;;;;;;;40.40;17.25;;;0.50;99.90;;;;;;4959319;28;20062;-67
2021/12/03 06:31:06;;;;;;;36.47;14.73;;;0.50;99.90;;;;;;4959563;28;20500;-65
2021/12/03 06:33:33;;;;;;;34.15;15.68;;;0.50;99.90;;;;;;4958964;28;20193;-66
2021/12/03 06:36:00;;;;;;;44.05;19.30;;;0.50;99.90;;;;;;4973128;28;20051;-65
2021/12/03 06:38:27;;;;;;;31.48;15.55;;;0.50;99.90;;;;;;4958758;28;20105;-67
2021/12/03 06:40:55;;;;;;;34.75;16.00;;;0.50;99.90;;;;;;4975910;28;20050;-67
2021/12/03 06:43:22;;;;;;;44.20;19.55;;;0.50;99.90;;;;;;4958547;28;20047;-66
2021/12/03 06:45:49;;;;;;;38.00;16.92;;;0.50;99.90;;;;;;4959696;28;20634;-68
2021/12/03 06:48:16;;;;;;;48.35;18.90;;;0.60;99.90;;;;;;4959267;28;20665;-66
2021/12/03 06:50:45;;;;;;;42.42;19.50;;;0.50;99.90;;;;;;4962208;28;20636;-67
2021/12/03 06:53:15;;;;;;;40.70;18.13;;;0.60;99.90;;;;;;4960418;28;20051;-66
2021/12/03 06:55:57;;;;;;;47.53;19.58;;;0.50;99.90;;;;;;4958959;28;20055;-67
2021/12/03 06:58:24;;;;;;;47.60;19.63;;;0.60;99.90;;;;;;4960124;28;20439;-66
2021/12/03 07:00:54;;;;;;;41.72;19.98;;;0.60;99.90;;;;;;4959590;28;20058;-66
2021/12/03 07:03:21;;;;;;;49.45;19.83;;;0.60;99.90;;;;;;4959922;28;20079;-68
2021/12/03 07:05:49;;;;;;;45.40;17.98;;;0.60;99.90;;;;;;4956720;28;20046;-65
2021/12/03 07:08:16;;;;;;;42.80;17.58;;;0.70;99.90;;;;;;4972120;28;20063;-65
2021/12/03 07:10:43;;;;;;;46.38;18.38;;;0.70;99.90;;;;;;4924406;28;20047;-68
2021/12/03 07:13:10;;;;;;;41.38;17.85;;;0.70;99.90;;;;;;4958777;28;20066;-68
2021/12/03 07:15:38;;;;;;;41.25;18.42;;;0.70;99.90;;;;;;4942181;28;20177;-66
2021/12/03 07:18:05;;;;;;;40.22;17.52;;;0.70;99.90;;;;;;4961746;28;20296;-67
2021/12/03 07:20:33;;;;;;;40.65;19.25;;;0.70;99.90;;;;;;4959534;28;20518;-67
2021/12/03 07:23:00;;;;;;;47.10;20.15;;;0.80;99.90;;;;;;4959926;28;20051;-68
2021/12/03 07:25:27;;;;;;;51.53;21.42;;;0.80;99.90;;;;;;4959001;28;20487;-67
2021/12/03 07:27:54;;;;;;;46.78;20.67;;;0.80;99.90;;;;;;4959051;28;20055;-66
2021/12/03 07:30:21;;;;;;;41.05;20.58;;;0.80;99.90;;;;;;4958880;28;20061;-66
2021/12/03 07:32:49;;;;;;;37.78;18.83;;;0.90;99.90;;;;;;4959155;28;20134;-66
2021/12/03 07:35:15;;;;;;;45.25;21.00;;;0.90;99.90;;;;;;4957090;28;20078;-67
2021/12/03 07:37:43;;;;;;;45.42;20.73;;;0.90;99.90;;;;;;4953172;28;20042;-68
2021/12/03 07:40:11;;;;;;;37.85;15.20;;;0.90;99.90;;;;;;4962559;28;20047;-68
2021/12/03 07:42:39;;;;;;;46.65;19.65;;;0.90;99.90;;;;;;4961897;28;20058;-67
2021/12/03 07:45:08;;;;;;;45.53;21.02;;;1.00;99.90;;;;;;4963101;28;20043;-67
2021/12/03 07:47:37;;;;;;;43.60;18.42;;;1.00;99.90;;;;;;4961269;28;20055;-66
2021/12/03 07:50:07;;;;;;;41.90;18.83;;;1.00;99.90;;;;;;4928154;28;20070;-67
2021/12/03 07:52:34;;;;;;;44.13;20.45;;;1.00;99.90;;;;;;4944746;28;20640;-67
2021/12/03 07:55:02;;;;;;;43.08;19.42;;;1.10;99.90;;;;;;4945392;28;20043;-69
2021/12/03 07:57:29;;;;;;;37.95;18.10;;;1.10;99.90;;;;;;4926704;28;20138;-67
2021/12/03 07:59:57;;;;;;;43.58;18.92;;;1.10;99.90;;;;;;4943300;28;20067;-69
2021/12/03 08:02:24;;;;;;;39.08;17.05;;;1.10;99.90;;;;;;4943642;28;20061;-68
2021/12/03 08:04:51;;;;;;;40.53;19.00;;;1.10;99.90;;;;;;4962634;28;20055;-68
2021/12/03 08:07:18;;;;;;;36.25;17.50;;;1.20;99.90;;;;;;4927378;28;20047;-69
2021/12/03 08:09:45;;;;;;;45.15;19.25;;;1.20;99.90;;;;;;4961993;28;20110;-66
2021/12/03 08:12:12;;;;;;;40.33;18.45;;;1.20;99.90;;;;;;4966195;28;20063;-66
2021/12/03 08:14:39;;;;;;;40.30;20.13;;;1.30;99.90;;;;;;4965932;28;20055;-66
2021/12/03 08:17:06;;;;;;;39.90;17.48;;;1.30;99.90;;;;;;4965225;28;20075;-67
2021/12/03 08:19:33;;;;;;;41.63;18.85;;;1.40;99.90;;;;;;4949903;28;20059;-67
2021/12/03 08:22:00;;;;;;;44.50;19.42;;;1.40;99.90;;;;;;4947096;28;20054;-66
2021/12/03 08:24:27;;;;;;;39.03;18.52;;;1.40;99.90;;;;;;4959099;28;20062;-66
2021/12/03 08:26:54;;;;;;;40.35;19.23;;;1.50;99.90;;;;;;4945185;28;20054;-67
2021/12/03 08:29:21;;;;;;;35.80;18.20;;;1.50;99.90;;;;;;4946198;28;20051;-66
2021/12/03 08:31:48;;;;;;;34.35;14.75;;;1.50;99.90;;;;;;4960679;28;20424;-68
2021/12/03 08:34:15;;;;;;;35.28;18.00;;;1.50;99.90;;;;;;4962576;28;20149;-67
2021/12/03 08:36:42;;;;;;;43.35;20.27;;;1.50;99.90;;;;;;4947848;28;20325;-67
2021/12/03 08:39:09;;;;;;;39.45;17.20;;;1.50;99.90;;;;;;4925481;29;20051;-67
2021/12/03 08:41:36;;;;;;;31.83;16.35;;;1.50;99.90;;;;;;4932032;28;20051;-66
2021/12/03 08:44:04;;;;;;;39.33;17.75;;;1.60;99.90;;;;;;4964107;28;20059;-66
2021/12/03 08:46:36;;;;;;;36.90;16.67;;;1.50;99.90;;;;;;4959067;28;20137;-68
2021/12/03 08:49:28;;;;;;;32.72;17.30;;;1.60;99.90;;;;;;4961621;28;20055;-67
2021/12/03 08:54:55;;;;;;;50.20;17.65;;;1.60;99.90;;;;;;4960756;28;20049;-68
2021/12/03 08:57:26;;;;;;;34.20;15.15;;;1.60;99.90;;;;;;4943753;28;20438;-68
2021/12/03 08:59:56;;;;;;;31.27;14.02;;;1.60;99.90;;;;;;4977341;28;20055;-67
2021/12/03 09:02:23;;;;;;;34.60;14.52;;;1.60;99.90;;;;;;4961170;28;20054;-67
2021/12/03 09:04:51;;;;;;;37.88;17.30;;;1.60;99.90;;;;;;4962124;28;20526;-66
2021/12/03 09:07:18;;;;;;;35.97;16.40;;;1.60;99.90;;;;;;4942632;28;20047;-68
2021/12/03 09:09:45;;;;;;;38.22;17.55;;;1.70;99.90;;;;;;4944380;28;20058;-65
2021/12/03 09:12:12;;;;;;;36.65;17.92;;;1.70;99.90;;;;;;4960134;28;20047;-66
2021/12/03 09:14:43;;;;;;;46.90;17.63;;;1.70;99.90;;;;;;4962414;28;20081;-67
2021/12/03 09:22:32;;;;;;;42.45;22.48;;;1.70;99.90;;;;;;4957833;28;20070;-66
2021/12/03 09:25:00;;;;;;;50.60;23.88;;;1.70;99.90;;;;;;4959282;28;20086;-67
2021/12/03 09:27:28;;;;;;;46.17;20.83;;;1.70;99.90;;;;;;4959084;28;20047;-64
2021/12/03 09:29:56;;;;;;;27.48;14.85;;;1.70;99.90;;;;;;4961801;28;20069;-65
2021/12/03 09:32:30;;;;;;;32.55;15.82;;;1.70;99.90;;;;;;4961836;28;20061;-66
2021/12/03 09:34:58;;;;;;;31.98;13.55;;;1.80;99.90;;;;;;4944006;28;20054;-65
2021/12/03 09:37:25;;;;;;;28.33;16.13;;;1.80;99.90;;;;;;4959838;28;20509;-68
2021/12/03 09:39:53;;;;;;;26.67;13.88;;;1.80;99.90;;;;;;4977963;28;20058;-68
2021/12/03 09:42:20;;;;;;;28.58;14.88;;;1.80;99.90;;;;;;4961239;28;20055;-69
2021/12/03 09:44:51;;;;;;;32.67;15.30;;;1.80;99.90;;;;;;4961930;28;20141;-68
2021/12/03 09:47:19;;;;;;;30.23;15.80;;;1.80;99.90;;;;;;4961264;28;20049;-69
2021/12/03 09:49:54;;;;;;;36.40;17.73;;;1.90;99.90;;;;;;4944714;28;20161;-70
2021/12/03 09:55:00;;;;;;;34.60;17.60;;;1.90;99.90;;;;;;4963186;28;20074;-69
2021/12/03 10:02:57;;;;;;;28.00;14.95;;;1.90;99.90;;;;;;4962253;28;20053;-70
2021/12/03 10:13:41;;;;;;;26.08;14.15;;;1.90;99.90;;;;;;4925223;29;20051;-71
2021/12/03 10:16:43;;;;;;;21.30;11.60;;;1.90;99.90;;;;;;4925454;28;20055;-70
2021/12/03 10:19:21;;;;;;;24.33;12.15;;;1.90;99.90;;;;;;4946778;28;20138;-73
2021/12/03 10:22:15;;;;;;;27.60;14.25;;;1.90;99.90;;;;;;4944563;28;20491;-72
2021/12/03 10:31:32;;;;;;;21.60;12.30;;;2.00;99.90;;;;;;4960423;28;20054;-70
2021/12/03 10:39:36;;;;;;;21.60;12.45;;;2.00;99.90;;;;;;4947413;28;20117;-70
2021/12/03 10:44:58;;;;;;;20.65;11.85;;;2.00;99.90;;;;;;4963128;28;20081;-72
2021/12/03 10:53:23;;;;;;;20.98;11.18;;;2.10;99.90;;;;;;4974823;28;20574;-75
2021/12/03 10:58:59;;;;;;;18.02;10.32;;;2.20;99.90;;;;;;4962921;28;20418;-73
2021/12/03 11:25:29;;;;;;;13.52;9.00;;;2.20;99.90;;;;;;4958922;28;20047;-77
2021/12/03 12:36:06;;;;;;;10.55;6.90;;;2.40;99.90;;;;;;4965213;28;20079;-76
2021/12/03 13:34:42;;;;;;;19.00;6.72;;;2.50;99.90;;;;;;4962895;28;20522;-74
2021/12/03 13:59:41;;;;;;;12.65;6.97;;;2.30;99.90;;;;;;4957021;28;20105;-75
2021/12/03 14:02:35;;;;;;;14.52;6.78;;;2.40;99.90;;;;;;4945828;28;20352;-72
2021/12/03 14:56:34;;;;;;;16.10;8.77;;;2.30;99.90;;;;;;4936068;28;20148;-71
2021/12/03 14:59:17;;;;;;;17.48;8.20;;;2.30;99.90;;;;;;4945424;28;20089;-74
2021/12/03 15:07:12;;;;;;;12.40;5.95;;;2.30;99.90;;;;;;4956974;28;20141;-71
2021/12/03 15:09:41;;;;;;;9.20;7.40;;;2.30;99.90;;;;;;4956400;28;20598;-75
2021/12/03 15:20:47;;;;;;;25.23;13.63;;;2.40;99.90;;;;;;4947684;28;20534;-73
2021/12/03 15:37:07;;;;;;;9.13;7.70;;;2.40;99.90;;;;;;4977051;28;20038;-75
2021/12/03 16:04:21;;;;;;;10.40;7.00;;;2.40;99.90;;;;;;4967129;28;19926;-72
2021/12/03 16:20:35;;;;;;;8.88;6.35;;;2.30;99.90;;;;;;4960536;28;20584;-71
2021/12/03 16:23:15;;;;;;;14.40;8.55;;;2.40;99.90;;;;;;4931891;29;20425;-73
2021/12/03 16:52:44;;;;;;;8.85;6.28;;;2.40;99.90;;;;;;4963801;28;20061;-72
2021/12/03 16:55:13;;;;;;;8.77;5.93;;;2.50;99.90;;;;;;4947746;28;20623;-71
2021/12/03 16:57:42;;;;;;;10.80;7.13;;;2.50;99.90;;;;;;4963031;28;20050;-72
2021/12/03 17:00:26;;;;;;;7.95;7.13;;;2.50;99.90;;;;;;4964539;28;20109;-71
2021/12/03 17:11:33;;;;;;;17.27;8.15;;;2.50;99.90;;;;;;4951280;28;20057;-73
2021/12/03 17:14:10;;;;;;;11.20;7.20;;;2.50;99.90;;;;;;4967894;28;20083;-72
2021/12/03 17:19:59;;;;;;;9.05;5.93;;;2.50;99.90;;;;;;4952378;28;20062;-73
2021/12/03 17:52:29;;;;;;;11.52;6.72;;;2.30;99.90;;;;;;4965889;28;20094;-71
2021/12/03 17:58:02;;;;;;;10.60;7.40;;;2.40;99.90;;;;;;4966741;28;20453;-70
2021/12/03 18:00:59;;;;;;;9.13;6.10;;;2.30;99.90;;;;;;4966039;28;20042;-70
2021/12/03 18:08:52;;;;;;;12.10;6.70;;;2.40;99.90;;;;;;4981467;28;20070;-70
2021/12/03 18:43:11;;;;;;;;;;;2.40;99.90;;;;;;4965030;28;20341;-71
2021/12/03 18:56:56;;;;;;;;;;;2.60;99.90;;;;;;4947918;28;20242;-71
2021/12/03 18:59:25;;;;;;;11.75;5.88;;;2.60;99.90;;;;;;4962894;28;19922;-71
2021/12/03 19:01:53;;;;;;;8.93;4.97;;;2.60;99.90;;;;;;4949225;28;20054;-71
2021/12/03 19:04:31;;;;;;;8.15;5.20;;;2.60;99.90;;;;;;4965016;28;20212;-73
2021/12/03 19:09:27;;;;;;;7.85;5.20;;;2.50;99.90;;;;;;4977416;28;20149;-71
2021/12/03 19:12:03;;;;;;;11.38;6.47;;;2.50;99.90;;;;;;4949125;28;20579;-72
2021/12/03 19:14:35;;;;;;;8.15;5.43;;;2.50;99.90;;;;;;4966029;28;20121;-73
2021/12/03 19:17:04;;;;;;;8.27;5.10;;;2.50;99.90;;;;;;4962558;28;20042;-71
2021/12/03 19:19:37;;;;;;;6.57;4.85;;;2.50;99.90;;;;;;4930707;28;20392;-72
2021/12/03 19:22:04;;;;;;;9.20;5.72;;;2.50;99.90;;;;;;4962669;28;20055;-71
2021/12/03 19:24:32;;;;;;;6.38;5.10;;;2.50;99.90;;;;;;4946945;28;20105;-74
2021/12/03 19:26:59;;;;;;;8.10;5.28;;;2.50;99.90;;;;;;4947651;28;20564;-72
2021/12/03 19:29:26;;;;;;;10.30;5.45;;;2.50;99.90;;;;;;4946516;28;20053;-71
2021/12/03 19:31:53;;;;;;;19.98;9.00;;;2.50;99.90;;;;;;4946525;28;20143;-72
2021/12/03 19:34:23;;;;;;;18.92;7.95;;;2.50;99.90;;;;;;4961683;28;20187;-74
2021/12/03 19:36:52;;;;;;;8.30;5.93;;;2.50;99.90;;;;;;4962339;28;20427;-72
2021/12/03 19:39:20;;;;;;;11.38;5.53;;;2.50;99.90;;;;;;4961878;28;20581;-75
2021/12/03 19:41:52;;;;;;;10.13;6.43;;;2.50;99.90;;;;;;4962490;28;20046;-73
2021/12/03 19:44:35;;;;;;;9.73;6.18;;;2.50;99.90;;;;;;4964469;28;20074;-74
2021/12/03 19:47:03;;;;;;;6.53;4.95;;;2.60;99.90;;;;;;4962327;28;20062;-75
2021/12/03 19:52:05;;;;;;;14.52;8.50;;;2.60;99.90;;;;;;4981122;28;20055;-74
2021/12/03 19:54:32;;;;;;;24.45;11.43;;;2.60;99.90;;;;;;4964719;28;20062;-71
2021/12/03 19:56:59;;;;;;;15.73;9.25;;;2.60;99.90;;;;;;4979789;28;20050;-73
2021/12/03 19:59:26;;;;;;;9.30;7.10;;;2.60;99.90;;;;;;4964200;28;20054;-72
2021/12/03 20:01:53;;;;;;;16.15;8.43;;;2.70;99.90;;;;;;4969333;28;20091;-73
2021/12/03 20:04:20;;;;;;;12.20;8.18;;;2.70;99.90;;;;;;4967945;28;20067;-73
2021/12/03 20:06:47;;;;;;;13.48;6.63;;;2.70;99.90;;;;;;4935972;28;20050;-71
2021/12/03 20:09:25;;;;;;;8.23;6.82;;;2.70;99.90;;;;;;4915697;29;20158;-70
2021/12/03 20:11:57;;;;;;;7.43;5.85;;;2.70;99.90;;;;;;4959215;28;20047;-71
2021/12/03 20:14:24;;;;;;;8.38;6.35;;;2.70;99.90;;;;;;4967767;28;20310;-71
2021/12/03 20:16:58;;;;;;;7.10;5.07;;;2.70;99.90;;;;;;4970319;28;20134;-72
2021/12/03 20:19:35;;;;;;;10.55;5.85;;;2.80;99.90;;;;;;4972464;28;20105;-73
2021/12/03 20:22:20;;;;;;;6.85;5.40;;;2.80;99.90;;;;;;4970992;28;20055;-72
2021/12/03 20:27:17;;;;;;;9.18;5.53;;;2.80;99.90;;;;;;4951591;28;20047;-71
2021/12/03 20:29:56;;;;;;;9.38;4.97;;;2.80;99.90;;;;;;4967823;28;20066;-71